createdAt,value
2022-12-18T00:01:23.170Z,17.50
2022-12-18T00:03:51.524Z,17.40
2022-12-18T00:06:18.850Z,17.40
2022-12-18T00:08:46.212Z,17.40
2022-12-18T00:11:15.807Z,17.40
2022-12-18T00:13:42.719Z,17.40
2022-12-18T00:16:12.435Z,17.50
2022-12-18T00:18:39.483Z,17.40
2022-12-18T00:21:08.370Z,17.40
2022-12-18T00:23:36.451Z,17.40
2022-12-18T00:26:05.865Z,17.40
2022-12-18T00:28:33.113Z,17.40
2022-12-18T00:31:08.163Z,17.40
2022-12-18T00:33:36.001Z,17.40
2022-12-18T00:36:04.898Z,17.40
2022-12-18T00:38:31.540Z,17.30
2022-12-18T00:40:58.142Z,17.30
2022-12-18T00:43:24.728Z,17.30
2022-12-18T00:45:51.667Z,17.40
2022-12-18T00:48:18.348Z,17.40
2022-12-18T00:50:45.095Z,17.30
2022-12-18T00:53:12.391Z,17.30
2022-12-18T00:55:40.902Z,17.30
2022-12-18T00:58:08.068Z,17.30
2022-12-18T01:00:34.840Z,17.30
2022-12-18T01:03:01.658Z,17.30
2022-12-18T01:05:28.675Z,17.30
2022-12-18T01:07:56.542Z,17.30
2022-12-18T01:10:24.383Z,17.30
2022-12-18T01:12:51.219Z,17.20
2022-12-18T01:15:18.490Z,17.20
2022-12-18T01:17:45.132Z,17.20
2022-12-18T01:20:13.676Z,17.20
2022-12-18T01:22:40.349Z,17.20
2022-12-18T01:25:07.308Z,17.20
2022-12-18T01:27:34.909Z,17.20
2022-12-18T01:30:01.597Z,17.20
2022-12-18T01:32:31.446Z,17.20
2022-12-18T01:34:58.287Z,17.20
2022-12-18T01:37:25.258Z,17.20
2022-12-18T01:39:55.128Z,17.20
2022-12-18T01:42:22.822Z,17.20
2022-12-18T01:45:12.179Z,17.20
2022-12-18T01:47:45.400Z,17.10
2022-12-18T01:50:20.981Z,17.10
2022-12-18T01:52:57.321Z,17.20
2022-12-18T01:55:27.511Z,17.10
2022-12-18T01:57:57.244Z,17.10
2022-12-18T02:00:25.281Z,17.10
2022-12-18T02:02:52.823Z,17.10
2022-12-18T02:05:54.447Z,17.10
2022-12-18T02:08:55.284Z,17.10
2022-12-18T02:11:27.902Z,17.10
2022-12-18T02:14:15.122Z,17.10
2022-12-18T02:16:54.553Z,17.10
2022-12-18T02:19:56.800Z,17.10
2022-12-18T02:22:29.059Z,17.10
2022-12-18T02:25:02.902Z,17.10
2022-12-18T02:27:33.234Z,17.00
2022-12-18T02:30:02.077Z,17.00
2022-12-18T02:32:53.751Z,17.00
2022-12-18T02:35:30.341Z,17.00
2022-12-18T02:37:58.977Z,17.00
2022-12-18T02:40:27.982Z,17.00
2022-12-18T02:42:54.773Z,17.00
2022-12-18T02:45:21.488Z,17.00
2022-12-18T02:47:50.486Z,17.00
2022-12-18T02:50:43.209Z,17.00
2022-12-18T02:53:40.887Z,17.00
2022-12-18T02:56:20.890Z,17.00
2022-12-18T02:59:00.745Z,17.00
2022-12-18T03:02:05.106Z,17.00
2022-12-18T03:04:38.646Z,16.90
2022-12-18T03:07:09.860Z,16.90
2022-12-18T03:09:40.105Z,16.90
2022-12-18T03:12:24.230Z,16.90
2022-12-18T03:15:17.417Z,16.90
2022-12-18T03:17:53.364Z,16.90
2022-12-18T03:20:22.540Z,16.90
2022-12-18T03:22:54.451Z,16.90
2022-12-18T03:25:22.302Z,16.90
2022-12-18T03:27:55.159Z,16.90
2022-12-18T03:30:22.054Z,16.90
2022-12-18T03:32:56.487Z,16.90
2022-12-18T03:35:40.609Z,16.90
2022-12-18T03:38:08.038Z,16.80
2022-12-18T03:41:15.160Z,16.90
2022-12-18T03:43:54.487Z,16.90
2022-12-18T03:46:35.188Z,16.90
2022-12-18T03:49:24.982Z,16.90
2022-12-18T03:51:57.990Z,16.80
2022-12-18T03:54:25.975Z,16.90
2022-12-18T03:56:59.204Z,16.80
2022-12-18T03:59:28.284Z,16.90
2022-12-18T04:01:58.831Z,16.80
2022-12-18T04:04:27.618Z,16.80
2022-12-18T04:06:54.920Z,16.80
2022-12-18T04:09:22.143Z,16.90
2022-12-18T04:11:49.039Z,16.80
2022-12-18T04:14:17.978Z,16.80
2022-12-18T04:16:45.265Z,16.90
2022-12-18T04:19:11.875Z,16.80
2022-12-18T04:21:38.534Z,16.80
2022-12-18T04:24:05.829Z,16.80
2022-12-18T04:26:32.435Z,16.80
2022-12-18T04:28:59.041Z,16.80
2022-12-18T04:31:25.743Z,16.80
2022-12-18T04:33:52.463Z,16.80
2022-12-18T04:36:19.177Z,16.80
2022-12-18T04:38:45.933Z,16.80
2022-12-18T04:41:12.537Z,16.80
2022-12-18T04:43:39.519Z,16.90
2022-12-18T04:46:08.287Z,16.80
2022-12-18T04:48:35.952Z,16.80
2022-12-18T04:51:02.675Z,16.80
2022-12-18T04:53:29.367Z,16.80
2022-12-18T04:56:13.444Z,15.30
2022-12-18T04:58:41.787Z,16.80
2022-12-18T05:01:09.380Z,16.80
2022-12-18T05:03:36.886Z,16.80
2022-12-18T05:06:05.086Z,16.80
2022-12-18T05:08:32.134Z,16.80
2022-12-18T05:11:10.031Z,16.80
2022-12-18T05:13:39.119Z,16.80
2022-12-18T05:16:06.689Z,16.80
2022-12-18T05:18:33.468Z,16.70
2022-12-18T05:21:00.074Z,16.80
2022-12-18T05:23:27.533Z,16.70
2022-12-18T05:25:59.560Z,16.80
2022-12-18T05:28:27.988Z,16.80
2022-12-18T05:30:57.521Z,16.80
2022-12-18T05:33:26.911Z,16.70
2022-12-18T05:35:55.616Z,16.70
2022-12-18T05:38:23.317Z,16.80
2022-12-18T05:40:51.220Z,16.80
2022-12-18T05:43:21.416Z,16.80
2022-12-18T05:45:49.499Z,16.80
2022-12-18T05:48:16.901Z,16.70
2022-12-18T05:50:46.365Z,16.70
2022-12-18T05:53:15.205Z,16.70
2022-12-18T05:55:43.084Z,16.70
2022-12-18T05:58:11.181Z,16.70
2022-12-18T06:00:40.767Z,16.70
2022-12-18T06:03:09.579Z,16.70
2022-12-18T06:05:38.182Z,16.70
2022-12-18T06:08:05.301Z,16.70
2022-12-18T06:10:32.248Z,16.70
2022-12-18T06:12:59.129Z,16.70
2022-12-18T06:15:25.732Z,16.70
2022-12-18T06:17:52.420Z,16.70
2022-12-18T06:20:19.140Z,16.70
2022-12-18T06:22:45.764Z,16.70
2022-12-18T06:25:12.726Z,16.70
2022-12-18T06:27:39.777Z,16.70
2022-12-18T06:30:07.086Z,16.70
2022-12-18T06:32:33.842Z,16.70
2022-12-18T06:35:00.507Z,16.70
2022-12-18T06:37:27.281Z,16.70
2022-12-18T06:39:57.454Z,16.70
2022-12-18T06:42:25.028Z,16.70
2022-12-18T06:44:51.822Z,16.70
2022-12-18T06:47:18.916Z,16.70
2022-12-18T06:49:45.908Z,16.70
2022-12-18T06:52:12.523Z,16.70
2022-12-18T06:54:39.098Z,16.70
2022-12-18T06:57:05.717Z,16.70
2022-12-18T06:59:32.301Z,16.70
2022-12-18T07:01:59.017Z,16.70
2022-12-18T07:04:32.372Z,16.70
2022-12-18T07:06:58.965Z,16.70
2022-12-18T07:09:26.010Z,16.70
2022-12-18T07:11:53.472Z,16.70
2022-12-18T07:14:20.175Z,16.70
2022-12-18T07:16:46.841Z,16.70
2022-12-18T07:19:13.595Z,16.70
2022-12-18T07:21:40.294Z,16.70
2022-12-18T07:24:07.804Z,16.80
2022-12-18T07:26:34.558Z,16.80
2022-12-18T07:29:01.182Z,16.70
2022-12-18T07:31:28.874Z,16.80
2022-12-18T07:33:56.260Z,16.80
2022-12-18T07:36:24.171Z,16.80
2022-12-18T07:38:53.285Z,16.80
2022-12-18T07:41:20.157Z,16.80
2022-12-18T07:43:47.291Z,16.80
2022-12-18T07:46:15.170Z,16.80
2022-12-18T07:48:43.461Z,16.80
2022-12-18T07:51:11.824Z,16.80
2022-12-18T07:53:39.064Z,16.80
2022-12-18T07:58:56.724Z,16.80
2022-12-18T08:01:23.638Z,16.90
2022-12-18T08:03:52.482Z,16.80
2022-12-18T08:06:21.802Z,16.90
2022-12-18T08:08:53.303Z,16.90
2022-12-18T08:11:19.960Z,16.90
2022-12-18T08:13:48.409Z,16.90
2022-12-18T08:16:16.544Z,16.90
2022-12-18T08:18:43.171Z,16.90
2022-12-18T08:21:14.121Z,16.90
2022-12-18T08:23:43.124Z,16.90
2022-12-18T08:26:11.266Z,16.90
2022-12-18T08:28:38.565Z,17.00
2022-12-18T08:31:05.583Z,17.00
2022-12-18T08:33:32.884Z,17.00
2022-12-18T08:36:00.442Z,17.00
2022-12-18T08:38:27.204Z,17.00
2022-12-18T08:41:05.956Z,17.00
2022-12-18T08:43:51.132Z,17.00
2022-12-18T08:46:19.376Z,17.00
2022-12-18T08:48:46.661Z,17.00
2022-12-18T08:51:13.246Z,17.00
2022-12-18T08:53:40.262Z,17.10
2022-12-18T08:56:08.271Z,17.10
2022-12-18T08:58:34.899Z,17.10
2022-12-18T09:01:03.148Z,17.10
2022-12-18T09:03:30.199Z,17.10
2022-12-18T09:05:57.246Z,17.10
2022-12-18T09:08:23.979Z,17.10
2022-12-18T09:10:51.329Z,17.20
2022-12-18T09:13:19.061Z,17.10
2022-12-18T09:15:50.406Z,17.20
2022-12-18T09:18:18.828Z,17.20
2022-12-18T09:20:46.068Z,17.20
2022-12-18T09:23:13.229Z,17.20
2022-12-18T09:25:40.259Z,17.20
2022-12-18T09:28:12.259Z,17.20
2022-12-18T09:30:40.966Z,17.20
2022-12-18T09:33:07.973Z,17.20
2022-12-18T09:35:42.245Z,17.20
2022-12-18T09:38:12.170Z,17.20
2022-12-18T09:40:50.984Z,17.20
2022-12-18T09:43:48.434Z,17.20
2022-12-18T09:46:38.928Z,17.20
2022-12-18T09:49:11.940Z,17.20
2022-12-18T09:51:44.692Z,17.30
2022-12-18T09:54:21.029Z,17.30
2022-12-18T09:56:48.762Z,17.30
2022-12-18T09:59:21.402Z,17.30
2022-12-18T10:01:48.110Z,17.30
2022-12-18T10:04:14.856Z,17.30
2022-12-18T10:06:53.527Z,17.30
2022-12-18T10:09:37.103Z,17.40
2022-12-18T10:12:26.814Z,17.40
2022-12-18T10:15:06.828Z,17.40
2022-12-18T10:18:07.445Z,17.40
2022-12-18T10:20:44.606Z,17.40
2022-12-18T10:23:17.179Z,17.40
2022-12-18T10:26:01.527Z,17.40
2022-12-18T10:28:31.461Z,17.40
2022-12-18T10:30:58.955Z,17.40
2022-12-18T10:33:30.419Z,17.50
2022-12-18T10:35:57.189Z,17.50
2022-12-18T10:38:32.974Z,17.50
2022-12-18T10:41:12.495Z,17.50
2022-12-18T10:43:40.533Z,17.50
2022-12-18T10:46:10.150Z,17.60
2022-12-18T10:48:42.412Z,17.60
2022-12-18T10:51:12.267Z,17.60
2022-12-18T10:53:42.739Z,17.60
2022-12-18T10:56:09.766Z,17.60
2022-12-18T10:58:38.640Z,17.60
2022-12-18T11:01:15.231Z,17.70
2022-12-18T11:04:02.106Z,17.70
2022-12-18T11:06:30.034Z,17.70
2022-12-18T11:09:25.783Z,17.80
2022-12-18T11:11:54.804Z,17.80
2022-12-18T11:14:25.918Z,17.80
2022-12-18T11:19:42.161Z,17.90
2022-12-18T11:22:23.956Z,17.80
2022-12-18T11:27:53.819Z,17.90
2022-12-18T11:30:31.072Z,18.00
2022-12-18T11:33:12.143Z,17.40
2022-12-18T11:35:46.199Z,18.00
2022-12-18T11:38:24.223Z,18.00
2022-12-18T11:41:04.960Z,17.90
2022-12-18T11:43:42.074Z,17.90
2022-12-18T11:46:19.396Z,17.90
2022-12-18T11:48:53.914Z,18.00
2022-12-18T11:51:29.568Z,18.00
2022-12-18T11:53:56.159Z,18.10
2022-12-18T11:56:44.300Z,18.00
2022-12-18T11:59:44.289Z,18.00
2022-12-18T12:02:26.652Z,18.00
2022-12-18T12:05:30.802Z,18.00
2022-12-18T12:08:03.595Z,18.10
2022-12-18T12:10:30.279Z,18.00
2022-12-18T12:13:12.107Z,18.00
2022-12-18T12:15:47.636Z,18.00
2022-12-18T12:18:25.772Z,18.00
2022-12-18T12:21:10.887Z,18.10
2022-12-18T12:23:49.428Z,18.10
2022-12-18T12:26:22.215Z,18.10
2022-12-18T12:28:51.510Z,18.00
2022-12-18T12:31:40.057Z,18.00
2022-12-18T12:34:27.440Z,18.00
2022-12-18T12:36:53.994Z,18.00
2022-12-18T12:39:29.196Z,18.10
2022-12-18T12:42:14.683Z,18.10
2022-12-18T12:44:54.259Z,18.10
2022-12-18T12:47:44.740Z,18.10
2022-12-18T12:50:19.900Z,18.10
2022-12-18T12:52:52.449Z,18.00
2022-12-18T12:55:23.228Z,18.10
2022-12-18T12:58:24.184Z,18.00
2022-12-18T13:01:02.306Z,18.10
2022-12-18T13:03:48.772Z,18.10
2022-12-18T13:06:41.597Z,18.10
2022-12-18T13:09:11.592Z,18.00
2022-12-18T13:12:00.320Z,18.00
2022-12-18T13:14:29.965Z,18.10
2022-12-18T13:17:16.588Z,18.10
2022-12-18T13:19:44.248Z,18.10
2022-12-18T13:22:25.914Z,18.10
2022-12-18T13:24:52.667Z,18.00
2022-12-18T13:27:39.121Z,18.10
2022-12-18T13:30:34.746Z,18.10
2022-12-18T13:33:25.407Z,18.10
2022-12-18T13:36:09.857Z,18.10
2022-12-18T13:38:39.171Z,18.10
2022-12-18T13:41:08.570Z,18.10
2022-12-18T13:43:47.791Z,18.00
2022-12-18T13:46:30.898Z,18.10
2022-12-18T13:49:15.370Z,18.10
2022-12-18T13:51:47.510Z,18.10
2022-12-18T13:54:38.096Z,18.00
2022-12-18T13:57:07.585Z,18.00
2022-12-18T13:59:40.187Z,18.00
2022-12-18T14:02:29.080Z,18.00
2022-12-18T14:04:56.391Z,18.00
2022-12-18T14:07:29.242Z,18.00
2022-12-18T14:10:18.770Z,18.00
2022-12-18T14:13:02.161Z,18.00
2022-12-18T14:15:37.868Z,18.00
2022-12-18T14:18:34.545Z,18.00
2022-12-18T14:21:03.581Z,18.00
2022-12-18T14:23:32.382Z,18.00
2022-12-18T14:26:05.208Z,18.00
2022-12-18T14:28:32.920Z,17.90
2022-12-18T14:30:59.584Z,17.90
2022-12-18T14:33:28.293Z,17.90
2022-12-18T14:35:54.834Z,17.90
2022-12-18T14:38:37.435Z,17.90
2022-12-18T14:41:12.322Z,17.90
2022-12-18T14:43:44.713Z,17.90
2022-12-18T14:46:35.378Z,17.90
2022-12-18T14:49:25.589Z,17.90
2022-12-18T14:51:58.693Z,17.90
2022-12-18T14:54:26.984Z,17.90
2022-12-18T14:57:23.151Z,17.90
2022-12-18T14:59:50.512Z,17.90
2022-12-18T15:02:21.689Z,17.90
2022-12-18T15:04:48.650Z,17.80
2022-12-18T15:07:21.531Z,17.90
2022-12-18T15:10:19.197Z,17.90
2022-12-18T15:12:58.786Z,17.90
2022-12-18T15:15:34.813Z,18.00
2022-12-18T15:18:12.594Z,18.00
2022-12-18T15:20:54.087Z,17.90
2022-12-18T15:23:44.189Z,17.90
2022-12-18T15:26:13.715Z,17.90
2022-12-18T15:28:49.505Z,17.90
2022-12-18T15:31:18.097Z,17.90
2022-12-18T15:33:53.782Z,17.90
2022-12-18T15:36:26.673Z,17.90
2022-12-18T15:38:56.162Z,17.90
2022-12-18T15:41:28.799Z,17.90
2022-12-18T15:43:55.389Z,17.90
2022-12-18T15:46:24.573Z,17.90
2022-12-18T15:48:59.613Z,18.00
2022-12-18T15:51:35.667Z,18.00
2022-12-18T15:54:04.727Z,18.00
2022-12-18T15:56:50.495Z,17.90
2022-12-18T15:59:19.739Z,17.90
2022-12-18T16:01:49.184Z,17.90
2022-12-18T16:04:17.991Z,17.90
2022-12-18T16:07:13.377Z,17.90
2022-12-18T16:09:31.284Z,17.90
2022-12-18T16:12:01.081Z,17.90
2022-12-18T16:14:30.603Z,17.90
2022-12-18T16:16:59.534Z,17.90
2022-12-18T16:19:26.876Z,17.90
2022-12-18T16:21:56.143Z,17.90
2022-12-18T16:24:28.516Z,17.90
2022-12-18T16:26:57.495Z,17.90
2022-12-18T16:29:27.913Z,17.90
2022-12-18T16:31:59.490Z,18.00
2022-12-18T16:34:34.874Z,17.90
2022-12-18T16:37:06.187Z,17.90
2022-12-18T16:39:35.380Z,17.90
2022-12-18T16:42:06.074Z,17.90
2022-12-18T16:44:34.398Z,17.90
2022-12-18T16:47:02.837Z,17.90
2022-12-18T16:49:30.129Z,17.90
2022-12-18T16:51:56.753Z,17.90
2022-12-18T16:54:23.479Z,17.90
2022-12-18T16:56:51.378Z,17.90
2022-12-18T16:59:18.058Z,17.90
2022-12-18T17:01:44.843Z,17.90
2022-12-18T17:04:11.761Z,17.90
2022-12-18T17:06:44.353Z,17.80
2022-12-18T17:09:16.036Z,17.90
2022-12-18T17:11:43.000Z,17.90
2022-12-18T17:14:13.223Z,17.80
2022-12-18T17:16:40.174Z,17.80
2022-12-18T17:19:13.605Z,17.90
2022-12-18T17:21:44.955Z,17.90
2022-12-18T17:24:12.022Z,17.90
2022-12-18T17:26:38.769Z,17.80
2022-12-18T17:29:05.871Z,18.90
2022-12-18T17:31:33.185Z,17.90
2022-12-18T17:34:02.795Z,17.90
2022-12-18T17:36:31.035Z,17.90
2022-12-18T17:38:59.813Z,17.90
2022-12-18T17:41:27.832Z,17.90
2022-12-18T17:43:56.420Z,18.00
2022-12-18T17:46:23.877Z,17.90
2022-12-18T17:48:50.595Z,18.00
2022-12-18T17:51:18.289Z,18.00
2022-12-18T17:53:45.220Z,18.00
2022-12-18T17:56:14.091Z,18.00
2022-12-18T17:58:42.211Z,18.00
2022-12-18T18:01:11.488Z,18.00
2022-12-18T18:03:42.156Z,18.00
2022-12-18T18:06:09.488Z,18.00
2022-12-18T18:08:37.089Z,18.00
2022-12-18T18:11:30.179Z,18.00
2022-12-18T18:14:00.612Z,18.00
2022-12-18T18:16:29.488Z,18.00
2022-12-18T18:19:00.828Z,18.00
2022-12-18T18:21:28.817Z,18.00
2022-12-18T18:23:58.876Z,18.00
2022-12-18T18:26:27.105Z,18.00
2022-12-18T18:28:55.632Z,18.10
2022-12-18T18:31:25.963Z,18.10
2022-12-18T18:33:52.663Z,18.00
2022-12-18T18:36:19.520Z,18.10
2022-12-18T18:38:48.587Z,18.00
2022-12-18T18:41:16.150Z,18.00
2022-12-18T18:43:43.792Z,18.00
2022-12-18T18:46:13.306Z,18.00
2022-12-18T18:48:40.221Z,18.00
2022-12-18T18:51:12.070Z,18.00
2022-12-18T18:53:44.378Z,18.00
2022-12-18T18:59:00.748Z,18.00
2022-12-18T19:01:27.780Z,18.00
2022-12-18T19:03:54.691Z,18.00
2022-12-18T19:06:26.744Z,18.00
2022-12-18T19:08:55.381Z,18.00
2022-12-18T19:11:42.321Z,18.00
2022-12-18T19:14:11.274Z,18.00
2022-12-18T19:16:38.444Z,18.10
2022-12-18T19:19:06.099Z,18.00
2022-12-18T19:21:34.168Z,18.00
2022-12-18T19:24:02.520Z,18.00
2022-12-18T19:26:29.415Z,17.50
2022-12-18T19:29:07.419Z,18.00
2022-12-18T19:31:36.337Z,18.10
2022-12-18T19:34:04.840Z,18.00
2022-12-18T19:36:33.366Z,18.00
2022-12-18T19:39:01.434Z,18.10
2022-12-18T19:41:31.080Z,18.00
2022-12-18T19:44:00.137Z,18.10
2022-12-18T19:46:28.983Z,18.00
2022-12-18T19:48:55.638Z,18.00
2022-12-18T19:51:24.868Z,18.00
2022-12-18T19:53:56.597Z,18.00
2022-12-18T19:56:26.710Z,18.00
2022-12-18T19:58:54.562Z,18.10
2022-12-18T20:01:23.304Z,18.10
2022-12-18T20:03:52.657Z,18.10
2022-12-18T20:06:48.070Z,18.10
2022-12-18T20:09:15.342Z,18.10
2022-12-18T20:11:42.844Z,18.10
2022-12-18T20:14:14.357Z,18.10
2022-12-18T20:16:43.617Z,18.10
2022-12-18T20:19:12.196Z,18.10
2022-12-18T20:21:38.926Z,18.10
2022-12-18T20:24:07.145Z,18.00
2022-12-18T20:26:34.120Z,18.00
2022-12-18T20:29:00.724Z,17.90
2022-12-18T20:31:27.482Z,18.00
2022-12-18T20:33:59.614Z,18.00
2022-12-18T20:36:28.279Z,18.00
2022-12-18T20:38:59.159Z,18.00
2022-12-18T20:41:35.035Z,18.00
2022-12-18T20:44:05.402Z,18.10
2022-12-18T20:46:34.094Z,18.10
2022-12-18T20:49:01.049Z,18.00
2022-12-18T20:51:29.189Z,18.00
2022-12-18T20:53:56.410Z,18.00
2022-12-18T20:56:23.607Z,18.00
2022-12-18T20:58:51.311Z,18.00
2022-12-18T21:01:23.227Z,17.90
2022-12-18T21:03:51.244Z,17.90
2022-12-18T21:06:20.471Z,18.00
2022-12-18T21:08:48.195Z,17.90
2022-12-18T21:12:05.648Z,17.90
2022-12-18T21:14:32.665Z,17.90
2022-12-18T21:17:02.359Z,17.90
2022-12-18T21:19:29.467Z,17.90
2022-12-18T21:21:57.014Z,17.80
2022-12-18T21:24:24.605Z,17.90
2022-12-18T21:26:52.085Z,17.90
2022-12-18T21:29:24.741Z,17.90
2022-12-18T21:31:53.654Z,17.90
2022-12-18T21:34:25.496Z,17.90
2022-12-18T21:36:53.162Z,17.80
2022-12-18T21:39:20.176Z,17.80
2022-12-18T21:42:08.787Z,17.80
2022-12-18T21:44:41.688Z,17.80
2022-12-18T21:47:19.113Z,17.80
2022-12-18T21:49:52.638Z,17.80
2022-12-18T21:52:20.299Z,17.80
2022-12-18T21:54:55.157Z,17.80
2022-12-18T21:57:22.242Z,17.80
2022-12-18T21:59:50.456Z,17.80
2022-12-18T22:02:20.386Z,17.80
2022-12-18T22:04:47.790Z,17.70
2022-12-18T22:07:16.284Z,17.80
2022-12-18T22:09:42.940Z,17.80
2022-12-18T22:12:13.106Z,17.80
2022-12-18T22:14:39.766Z,17.70
2022-12-18T22:17:06.382Z,17.70
2022-12-18T22:19:38.130Z,17.70
2022-12-18T22:22:09.429Z,17.70
2022-12-18T22:24:36.043Z,17.70
2022-12-18T22:27:02.675Z,17.70
2022-12-18T22:29:48.487Z,17.70
2022-12-18T22:32:16.893Z,17.70
2022-12-18T22:34:48.128Z,17.70
2022-12-18T22:37:14.735Z,17.70
2022-12-18T22:39:41.389Z,17.70
2022-12-18T22:42:08.720Z,17.70
2022-12-18T22:44:35.372Z,17.70
2022-12-18T22:47:06.060Z,17.70
2022-12-18T22:49:35.006Z,17.70
2022-12-18T22:52:06.039Z,17.70
2022-12-18T22:54:33.356Z,17.70
2022-12-18T22:56:59.979Z,17.70
2022-12-18T22:59:26.694Z,17.60
2022-12-18T23:01:58.738Z,17.70
2022-12-18T23:04:34.287Z,18.60
2022-12-18T23:07:05.194Z,17.60
2022-12-18T23:09:32.300Z,17.60
2022-12-18T23:11:58.965Z,17.60
2022-12-18T23:14:25.579Z,17.60
2022-12-18T23:16:53.234Z,17.60
2022-12-18T23:19:20.735Z,17.60
2022-12-18T23:21:47.982Z,17.60
2022-12-18T23:24:15.507Z,17.60
2022-12-18T23:26:42.994Z,17.60
2022-12-18T23:29:09.666Z,17.60
2022-12-18T23:31:38.755Z,17.60
2022-12-18T23:34:06.699Z,17.60
2022-12-18T23:36:45.586Z,17.60
2022-12-18T23:39:15.483Z,17.60
2022-12-18T23:41:57.730Z,17.60
2022-12-18T23:44:24.641Z,17.60
2022-12-18T23:46:51.288Z,17.50
2022-12-18T23:49:17.911Z,17.50
2022-12-18T23:51:44.511Z,17.50
2022-12-18T23:54:11.154Z,17.50
2022-12-18T23:56:37.805Z,17.50
2022-12-18T23:59:04.678Z,17.50
